sensor_id;sensor_type;location;lat;lon;timestamp;P1;durP1;ratioP1;P2;durP2;ratioP2
49440;SDS011;35317;51.978;6.296;2022-08-11T00:03:07;4.90;;;3.03;;
49440;SDS011;35317;51.978;6.296;2022-08-11T00:08:14;4.43;;;3.05;;
49440;SDS011;35317;51.978;6.296;2022-08-11T00:13:32;7.68;;;2.75;;
49440;SDS011;35317;51.978;6.296;2022-08-11T00:18:57;7.10;;;3.50;;
49440;SDS011;35317;51.978;6.296;2022-08-11T00:23:59;8.07;;;2.55;;
49440;SDS011;35317;51.978;6.296;2022-08-11T00:29:10;6.20;;;2.60;;
49440;SDS011;35317;51.978;6.296;2022-08-11T00:34:11;4.82;;;2.80;;
49440;SDS011;35317;51.978;6.296;2022-08-11T00:39:15;3.93;;;2.70;;
49440;SDS011;35317;51.978;6.296;2022-08-11T00:49:36;4.65;;;2.95;;
49440;SDS011;35317;51.978;6.296;2022-08-11T00:55:02;8.07;;;3.95;;
49440;SDS011;35317;51.978;6.296;2022-08-11T01:00:34;14.43;;;3.72;;
49440;SDS011;35317;51.978;6.296;2022-08-11T01:56:00;6.10;;;3.42;;
49440;SDS011;35317;51.978;6.296;2022-08-11T02:01:40;7.70;;;3.97;;
49440;SDS011;35317;51.978;6.296;2022-08-11T02:17:55;8.98;;;4.85;;
49440;SDS011;35317;51.978;6.296;2022-08-11T02:28:59;7.22;;;4.22;;
49440;SDS011;35317;51.978;6.296;2022-08-11T02:34:48;7.65;;;4.88;;
49440;SDS011;35317;51.978;6.296;2022-08-11T02:40:07;10.25;;;5.45;;
49440;SDS011;35317;51.978;6.296;2022-08-11T02:45:54;7.28;;;5.00;;
49440;SDS011;35317;51.978;6.296;2022-08-11T02:57:17;9.30;;;4.95;;
49440;SDS011;35317;51.978;6.296;2022-08-11T03:13:18;7.78;;;5.40;;
49440;SDS011;35317;51.978;6.296;2022-08-11T03:24:48;8.63;;;6.13;;
49440;SDS011;35317;51.978;6.296;2022-08-11T03:30:14;9.20;;;6.03;;
49440;SDS011;35317;51.978;6.296;2022-08-11T03:35:18;6.90;;;6.00;;
49440;SDS011;35317;51.978;6.296;2022-08-11T03:46:15;7.88;;;5.43;;
49440;SDS011;35317;51.978;6.296;2022-08-11T03:51:47;9.40;;;5.90;;
49440;SDS011;35317;51.978;6.296;2022-08-11T04:25:19;10.07;;;6.82;;
49440;SDS011;35317;51.978;6.296;2022-08-11T04:30:57;11.15;;;7.30;;
49440;SDS011;35317;51.978;6.296;2022-08-11T04:36:34;7.60;;;6.18;;
49440;SDS011;35317;51.978;6.296;2022-08-11T05:00:29;9.82;;;6.72;;
49440;SDS011;35317;51.978;6.296;2022-08-11T05:17:08;11.40;;;6.93;;
49440;SDS011;35317;51.978;6.296;2022-08-11T05:22:33;10.98;;;6.55;;
49440;SDS011;35317;51.978;6.296;2022-08-11T05:27:58;10.00;;;7.18;;
49440;SDS011;35317;51.978;6.296;2022-08-11T05:33:32;12.48;;;6.90;;
49440;SDS011;35317;51.978;6.296;2022-08-11T05:38:57;8.50;;;6.78;;
49440;SDS011;35317;51.978;6.296;2022-08-11T05:44:21;11.57;;;6.85;;
49440;SDS011;35317;51.978;6.296;2022-08-11T05:49:41;9.52;;;6.63;;
49440;SDS011;35317;51.978;6.296;2022-08-11T05:55:07;6.80;;;6.03;;
49440;SDS011;35317;51.978;6.296;2022-08-11T06:00:29;14.45;;;6.35;;
49440;SDS011;35317;51.978;6.296;2022-08-11T06:05:33;10.00;;;5.93;;
49440;SDS011;35317;51.978;6.296;2022-08-11T06:10:39;8.32;;;5.53;;
49440;SDS011;35317;51.978;6.296;2022-08-11T06:15:43;7.97;;;5.30;;
49440;SDS011;35317;51.978;6.296;2022-08-11T06:20:50;12.18;;;5.60;;
49440;SDS011;35317;51.978;6.296;2022-08-11T06:25:54;9.73;;;5.18;;
49440;SDS011;35317;51.978;6.296;2022-08-11T06:30:54;5.43;;;4.80;;
49440;SDS011;35317;51.978;6.296;2022-08-11T06:36:16;7.78;;;5.07;;
49440;SDS011;35317;51.978;6.296;2022-08-11T06:42:22;10.45;;;5.45;;
49440;SDS011;35317;51.978;6.296;2022-08-11T06:47:04;6.90;;;4.70;;
49440;SDS011;35317;51.978;6.296;2022-08-11T06:52:12;8.13;;;4.80;;
49440;SDS011;35317;51.978;6.296;2022-08-11T06:57:16;9.52;;;5.47;;
49440;SDS011;35317;51.978;6.296;2022-08-11T07:02:42;10.93;;;5.38;;
49440;SDS011;35317;51.978;6.296;2022-08-11T07:08:12;10.63;;;4.93;;
49440;SDS011;35317;51.978;6.296;2022-08-11T07:13:53;7.28;;;4.95;;
49440;SDS011;35317;51.978;6.296;2022-08-11T07:24:52;7.18;;;4.00;;
49440;SDS011;35317;51.978;6.296;2022-08-11T07:30:19;9.68;;;3.80;;
49440;SDS011;35317;51.978;6.296;2022-08-11T07:35:27;11.98;;;3.45;;
49440;SDS011;35317;51.978;6.296;2022-08-11T07:40:33;6.07;;;3.42;;
49440;SDS011;35317;51.978;6.296;2022-08-11T07:45:35;6.10;;;3.17;;
49440;SDS011;35317;51.978;6.296;2022-08-11T07:51:00;6.03;;;2.88;;
49440;SDS011;35317;51.978;6.296;2022-08-11T07:56:20;8.48;;;2.83;;
49440;SDS011;35317;51.978;6.296;2022-08-11T08:01:24;10.02;;;2.88;;
49440;SDS011;35317;51.978;6.296;2022-08-11T08:06:45;5.40;;;2.70;;
49440;SDS011;35317;51.978;6.296;2022-08-11T08:12:04;5.22;;;2.83;;
49440;SDS011;35317;51.978;6.296;2022-08-11T08:17:26;9.45;;;3.13;;
49440;SDS011;35317;51.978;6.296;2022-08-11T08:22:49;4.93;;;3.05;;
49440;SDS011;35317;51.978;6.296;2022-08-11T08:27:57;9.10;;;2.45;;
49440;SDS011;35317;51.978;6.296;2022-08-11T08:32:59;10.13;;;2.42;;
49440;SDS011;35317;51.978;6.296;2022-08-11T08:38:01;4.10;;;2.30;;
49440;SDS011;35317;51.978;6.296;2022-08-11T08:43:05;7.47;;;2.50;;
49440;SDS011;35317;51.978;6.296;2022-08-11T08:48:14;5.63;;;2.53;;
49440;SDS011;35317;51.978;6.296;2022-08-11T08:53:20;6.43;;;2.15;;
49440;SDS011;35317;51.978;6.296;2022-08-11T08:58:28;10.27;;;2.40;;
49440;SDS011;35317;51.978;6.296;2022-08-11T09:03:30;3.75;;;2.40;;
49440;SDS011;35317;51.978;6.296;2022-08-11T09:08:37;7.25;;;2.40;;
49440;SDS011;35317;51.978;6.296;2022-08-11T09:13:39;4.43;;;2.53;;
49440;SDS011;35317;51.978;6.296;2022-08-11T09:18:43;7.53;;;2.80;;
49440;SDS011;35317;51.978;6.296;2022-08-11T09:23:44;4.05;;;2.67;;
49440;SDS011;35317;51.978;6.296;2022-08-11T09:29:05;5.60;;;2.50;;
49440;SDS011;35317;51.978;6.296;2022-08-11T09:34:09;5.93;;;2.42;;
49440;SDS011;35317;51.978;6.296;2022-08-11T09:44:33;8.60;;;2.05;;
49440;SDS011;35317;51.978;6.296;2022-08-11T09:49:50;4.93;;;2.28;;
49440;SDS011;35317;51.978;6.296;2022-08-11T09:54:55;3.80;;;2.10;;
49440;SDS011;35317;51.978;6.296;2022-08-11T09:59:56;5.72;;;2.00;;
49440;SDS011;35317;51.978;6.296;2022-08-11T10:04:57;5.72;;;2.00;;
49440;SDS011;35317;51.978;6.296;2022-08-11T10:10:19;4.57;;;1.77;;
49440;SDS011;35317;51.978;6.296;2022-08-11T10:15:22;3.08;;;2.00;;
49440;SDS011;35317;51.978;6.296;2022-08-11T10:20:39;3.33;;;1.98;;
49440;SDS011;35317;51.978;6.296;2022-08-11T10:25:40;6.50;;;2.00;;
49440;SDS011;35317;51.978;6.296;2022-08-11T10:31:02;5.75;;;1.90;;
49440;SDS011;35317;51.978;6.296;2022-08-11T10:36:22;7.38;;;2.03;;
49440;SDS011;35317;51.978;6.296;2022-08-11T10:41:25;8.20;;;1.90;;
49440;SDS011;35317;51.978;6.296;2022-08-11T10:46:45;10.70;;;2.03;;
49440;SDS011;35317;51.978;6.296;2022-08-11T10:52:06;8.57;;;1.67;;
49440;SDS011;35317;51.978;6.296;2022-08-11T10:57:29;5.82;;;1.77;;
49440;SDS011;35317;51.978;6.296;2022-08-11T11:02:48;6.60;;;1.88;;
49440;SDS011;35317;51.978;6.296;2022-08-11T11:13:28;4.28;;;1.83;;
49440;SDS011;35317;51.978;6.296;2022-08-11T11:18:50;3.97;;;1.50;;
49440;SDS011;35317;51.978;6.296;2022-08-11T11:23:53;7.85;;;1.65;;
49440;SDS011;35317;51.978;6.296;2022-08-11T11:39:41;7.07;;;1.67;;
49440;SDS011;35317;51.978;6.296;2022-08-11T11:44:44;6.38;;;1.60;;
49440;SDS011;35317;51.978;6.296;2022-08-11T11:49:47;5.40;;;2.10;;
49440;SDS011;35317;51.978;6.296;2022-08-11T11:54:50;3.45;;;1.90;;
49440;SDS011;35317;51.978;6.296;2022-08-11T12:00:05;2.47;;;1.52;;
49440;SDS011;35317;51.978;6.296;2022-08-11T12:05:27;6.30;;;1.80;;
49440;SDS011;35317;51.978;6.296;2022-08-11T12:10:30;5.07;;;1.60;;
49440;SDS011;35317;51.978;6.296;2022-08-11T12:15:32;1.67;;;1.58;;
49440;SDS011;35317;51.978;6.296;2022-08-11T12:25:36;3.15;;;1.58;;
49440;SDS011;35317;51.978;6.296;2022-08-11T12:30:55;2.30;;;1.50;;
49440;SDS011;35317;51.978;6.296;2022-08-11T12:35:57;2.42;;;1.65;;
49440;SDS011;35317;51.978;6.296;2022-08-11T12:40:59;5.00;;;1.80;;
49440;SDS011;35317;51.978;6.296;2022-08-11T12:46:32;4.72;;;1.48;;
49440;SDS011;35317;51.978;6.296;2022-08-11T12:51:37;2.95;;;1.60;;
49440;SDS011;35317;51.978;6.296;2022-08-11T12:57:11;7.95;;;1.92;;
49440;SDS011;35317;51.978;6.296;2022-08-11T13:02:33;3.20;;;1.63;;
49440;SDS011;35317;51.978;6.296;2022-08-11T13:07:53;6.97;;;1.98;;
49440;SDS011;35317;51.978;6.296;2022-08-11T13:12:54;3.78;;;2.05;;
49440;SDS011;35317;51.978;6.296;2022-08-11T13:17:54;7.35;;;2.30;;
49440;SDS011;35317;51.978;6.296;2022-08-11T13:22:56;4.53;;;1.75;;
49440;SDS011;35317;51.978;6.296;2022-08-11T13:27:59;3.60;;;1.55;;
49440;SDS011;35317;51.978;6.296;2022-08-11T13:33:03;7.85;;;1.95;;
49440;SDS011;35317;51.978;6.296;2022-08-11T13:38:05;3.63;;;1.63;;
49440;SDS011;35317;51.978;6.296;2022-08-11T13:43:12;3.20;;;1.55;;
49440;SDS011;35317;51.978;6.296;2022-08-11T13:48:14;3.42;;;1.60;;
49440;SDS011;35317;51.978;6.296;2022-08-11T13:53:16;3.58;;;1.60;;
49440;SDS011;35317;51.978;6.296;2022-08-11T13:58:25;3.65;;;1.40;;
49440;SDS011;35317;51.978;6.296;2022-08-11T14:03:28;3.20;;;1.77;;
49440;SDS011;35317;51.978;6.296;2022-08-11T14:08:31;4.55;;;1.60;;
49440;SDS011;35317;51.978;6.296;2022-08-11T14:13:37;8.98;;;1.70;;
49440;SDS011;35317;51.978;6.296;2022-08-11T14:18:45;3.92;;;1.13;;
49440;SDS011;35317;51.978;6.296;2022-08-11T14:23:49;4.93;;;1.42;;
49440;SDS011;35317;51.978;6.296;2022-08-11T14:28:57;4.43;;;1.48;;
49440;SDS011;35317;51.978;6.296;2022-08-11T14:34:09;3.95;;;1.58;;
49440;SDS011;35317;51.978;6.296;2022-08-11T14:39:12;3.90;;;1.23;;
49440;SDS011;35317;51.978;6.296;2022-08-11T14:44:17;3.10;;;1.30;;
49440;SDS011;35317;51.978;6.296;2022-08-11T14:49:37;2.45;;;1.40;;
49440;SDS011;35317;51.978;6.296;2022-08-11T14:54:38;4.40;;;2.05;;
49440;SDS011;35317;51.978;6.296;2022-08-11T15:05:05;3.90;;;1.55;;
49440;SDS011;35317;51.978;6.296;2022-08-11T15:10:08;3.40;;;1.33;;
49440;SDS011;35317;51.978;6.296;2022-08-11T15:15:09;5.72;;;1.60;;
49440;SDS011;35317;51.978;6.296;2022-08-11T15:20:30;3.60;;;1.27;;
49440;SDS011;35317;51.978;6.296;2022-08-11T15:26:34;2.80;;;1.55;;
49440;SDS011;35317;51.978;6.296;2022-08-11T15:31:18;2.28;;;1.40;;
49440;SDS011;35317;51.978;6.296;2022-08-11T15:36:42;3.17;;;1.52;;
49440;SDS011;35317;51.978;6.296;2022-08-11T15:47:35;3.75;;;1.50;;
49440;SDS011;35317;51.978;6.296;2022-08-11T15:52:48;7.53;;;1.55;;
49440;SDS011;35317;51.978;6.296;2022-08-11T15:58:18;2.85;;;1.23;;
49440;SDS011;35317;51.978;6.296;2022-08-11T16:03:51;5.05;;;1.50;;
49440;SDS011;35317;51.978;6.296;2022-08-11T16:09:10;7.43;;;1.67;;
49440;SDS011;35317;51.978;6.296;2022-08-11T16:14:14;6.88;;;1.85;;
49440;SDS011;35317;51.978;6.296;2022-08-11T16:19:35;3.78;;;1.48;;
49440;SDS011;35317;51.978;6.296;2022-08-11T16:24:43;5.93;;;1.38;;
49440;SDS011;35317;51.978;6.296;2022-08-11T16:29:46;5.05;;;1.42;;
49440;SDS011;35317;51.978;6.296;2022-08-11T16:34:49;4.13;;;1.50;;
49440;SDS011;35317;51.978;6.296;2022-08-11T16:40:14;5.72;;;1.48;;
49440;SDS011;35317;51.978;6.296;2022-08-11T16:45:16;2.33;;;1.40;;
49440;SDS011;35317;51.978;6.296;2022-08-11T16:50:36;4.90;;;1.63;;
49440;SDS011;35317;51.978;6.296;2022-08-11T16:55:38;3.38;;;1.30;;
49440;SDS011;35317;51.978;6.296;2022-08-11T17:00:39;2.38;;;1.70;;
49440;SDS011;35317;51.978;6.296;2022-08-11T17:05:44;3.70;;;1.45;;
49440;SDS011;35317;51.978;6.296;2022-08-11T17:11:09;3.67;;;1.52;;
49440;SDS011;35317;51.978;6.296;2022-08-11T17:16:31;8.50;;;1.98;;
49440;SDS011;35317;51.978;6.296;2022-08-11T17:21:40;2.80;;;1.63;;
49440;SDS011;35317;51.978;6.296;2022-08-11T17:27:06;2.03;;;1.25;;
49440;SDS011;35317;51.978;6.296;2022-08-11T17:32:10;2.40;;;1.35;;
49440;SDS011;35317;51.978;6.296;2022-08-11T17:37:34;1.85;;;1.20;;
49440;SDS011;35317;51.978;6.296;2022-08-11T17:42:40;3.88;;;1.25;;
49440;SDS011;35317;51.978;6.296;2022-08-11T17:48:01;1.50;;;1.20;;
49440;SDS011;35317;51.978;6.296;2022-08-11T17:53:22;1.85;;;1.30;;
49440;SDS011;35317;51.978;6.296;2022-08-11T17:58:42;4.85;;;1.80;;
49440;SDS011;35317;51.978;6.296;2022-08-11T18:04:06;3.85;;;1.30;;
49440;SDS011;35317;51.978;6.296;2022-08-11T18:09:12;2.15;;;1.30;;
49440;SDS011;35317;51.978;6.296;2022-08-11T18:14:41;7.62;;;1.33;;
49440;SDS011;35317;51.978;6.296;2022-08-11T18:20:05;2.23;;;1.23;;
49440;SDS011;35317;51.978;6.296;2022-08-11T18:25:26;5.68;;;1.73;;
49440;SDS011;35317;51.978;6.296;2022-08-11T18:30:49;2.20;;;1.55;;
49440;SDS011;35317;51.978;6.296;2022-08-11T18:36:12;6.28;;;1.70;;
49440;SDS011;35317;51.978;6.296;2022-08-11T18:41:39;2.20;;;1.55;;
49440;SDS011;35317;51.978;6.296;2022-08-11T18:47:04;1.97;;;1.50;;
49440;SDS011;35317;51.978;6.296;2022-08-11T18:52:28;12.13;;;1.98;;
49440;SDS011;35317;51.978;6.296;2022-08-11T18:57:49;9.70;;;2.38;;
49440;SDS011;35317;51.978;6.296;2022-08-11T19:03:13;6.20;;;2.28;;
49440;SDS011;35317;51.978;6.296;2022-08-11T19:08:37;7.60;;;2.33;;
49440;SDS011;35317;51.978;6.296;2022-08-11T19:14:00;7.63;;;2.30;;
49440;SDS011;35317;51.978;6.296;2022-08-11T19:19:21;5.28;;;2.50;;
49440;SDS011;35317;51.978;6.296;2022-08-11T19:24:43;4.75;;;2.20;;
49440;SDS011;35317;51.978;6.296;2022-08-11T19:30:06;3.20;;;2.03;;
49440;SDS011;35317;51.978;6.296;2022-08-11T19:35:26;6.60;;;2.25;;
49440;SDS011;35317;51.978;6.296;2022-08-11T19:40:46;6.97;;;2.38;;
49440;SDS011;35317;51.978;6.296;2022-08-11T19:46:07;7.50;;;2.13;;
49440;SDS011;35317;51.978;6.296;2022-08-11T19:51:28;8.80;;;3.03;;
49440;SDS011;35317;51.978;6.296;2022-08-11T19:56:48;5.05;;;2.53;;
49440;SDS011;35317;51.978;6.296;2022-08-11T20:02:09;5.68;;;2.97;;
49440;SDS011;35317;51.978;6.296;2022-08-11T20:07:28;5.85;;;3.22;;
49440;SDS011;35317;51.978;6.296;2022-08-11T20:12:49;3.88;;;2.90;;
49440;SDS011;35317;51.978;6.296;2022-08-11T20:18:10;3.67;;;2.20;;
49440;SDS011;35317;51.978;6.296;2022-08-11T20:23:31;5.28;;;2.45;;
49440;SDS011;35317;51.978;6.296;2022-08-11T20:28:52;5.30;;;2.88;;
49440;SDS011;35317;51.978;6.296;2022-08-11T20:34:13;7.25;;;3.25;;
49440;SDS011;35317;51.978;6.296;2022-08-11T20:39:36;6.30;;;2.65;;
49440;SDS011;35317;51.978;6.296;2022-08-11T20:44:59;6.22;;;2.75;;
49440;SDS011;35317;51.978;6.296;2022-08-11T20:50:21;6.53;;;2.70;;
49440;SDS011;35317;51.978;6.296;2022-08-11T20:55:42;5.07;;;2.20;;
49440;SDS011;35317;51.978;6.296;2022-08-11T21:01:02;4.00;;;2.97;;
49440;SDS011;35317;51.978;6.296;2022-08-11T21:06:22;5.22;;;2.45;;
49440;SDS011;35317;51.978;6.296;2022-08-11T21:11:43;4.75;;;2.75;;
49440;SDS011;35317;51.978;6.296;2022-08-11T21:17:03;6.22;;;2.40;;
49440;SDS011;35317;51.978;6.296;2022-08-11T21:22:25;5.57;;;2.30;;
49440;SDS011;35317;51.978;6.296;2022-08-11T21:27:49;6.43;;;2.70;;
49440;SDS011;35317;51.978;6.296;2022-08-11T21:33:10;3.92;;;2.40;;
49440;SDS011;35317;51.978;6.296;2022-08-11T21:38:30;4.95;;;2.60;;
49440;SDS011;35317;51.978;6.296;2022-08-11T21:43:50;4.22;;;2.30;;
49440;SDS011;35317;51.978;6.296;2022-08-11T21:49:12;3.72;;;2.92;;
49440;SDS011;35317;51.978;6.296;2022-08-11T21:54:32;5.80;;;2.95;;
49440;SDS011;35317;51.978;6.296;2022-08-11T21:59:52;4.57;;;3.22;;
49440;SDS011;35317;51.978;6.296;2022-08-11T22:05:15;5.43;;;2.70;;
49440;SDS011;35317;51.978;6.296;2022-08-11T22:10:35;4.25;;;2.25;;
49440;SDS011;35317;51.978;6.296;2022-08-11T22:15:55;3.55;;;2.08;;
49440;SDS011;35317;51.978;6.296;2022-08-11T22:21:16;4.20;;;2.22;;
49440;SDS011;35317;51.978;6.296;2022-08-11T22:26:35;5.13;;;2.35;;
49440;SDS011;35317;51.978;6.296;2022-08-11T22:31:54;3.20;;;2.17;;
49440;SDS011;35317;51.978;6.296;2022-08-11T22:37:16;4.45;;;2.58;;
49440;SDS011;35317;51.978;6.296;2022-08-11T22:42:37;3.38;;;2.03;;
49440;SDS011;35317;51.978;6.296;2022-08-11T22:47:56;6.65;;;2.10;;
49440;SDS011;35317;51.978;6.296;2022-08-11T22:53:18;8.02;;;1.90;;
49440;SDS011;35317;51.978;6.296;2022-08-11T22:58:38;4.53;;;2.40;;
49440;SDS011;35317;51.978;6.296;2022-08-11T23:03:59;5.78;;;1.98;;
49440;SDS011;35317;51.978;6.296;2022-08-11T23:09:19;4.07;;;2.20;;
49440;SDS011;35317;51.978;6.296;2022-08-11T23:14:41;3.67;;;1.98;;
49440;SDS011;35317;51.978;6.296;2022-08-11T23:20:01;7.07;;;2.20;;
49440;SDS011;35317;51.978;6.296;2022-08-11T23:25:21;7.05;;;2.50;;
49440;SDS011;35317;51.978;6.296;2022-08-11T23:30:41;5.18;;;3.05;;
49440;SDS011;35317;51.978;6.296;2022-08-11T23:36:00;8.18;;;3.95;;
49440;SDS011;35317;51.978;6.296;2022-08-11T23:41:20;7.60;;;3.45;;
49440;SDS011;35317;51.978;6.296;2022-08-11T23:46:40;5.88;;;3.50;;
49440;SDS011;35317;51.978;6.296;2022-08-11T23:52:02;3.97;;;3.22;;
49440;SDS011;35317;51.978;6.296;2022-08-11T23:57:22;7.05;;;4.53;;
